Time;durP1;ratioP1;P1;durP2;ratioP2;P2;SDS_P1;SDS_P2;PMS_P1;PMS_P2;Temp;Humidity;BMP_temperature;BMP_pressure;BME280_temperature;BME280_humidity;BME280_pressure;Samples;Min_cycle;Max_cycle;Signal;HPM_P1;HPM_P2
2022/06/13 00:00:29;;;;;;;11.30;3.08;;;;;;;15.24;58.13;101813.31;5075104;28;20079;-63
2022/06/13 00:02:59;;;;;;;12.35;2.92;;;;;;;15.15;58.63;101812.44;5074757;28;20380;-62
2022/06/13 00:05:34;;;;;;;14.32;3.10;;;;;;;15.24;58.96;101810.53;5074812;28;20059;-63
2022/06/13 00:08:02;;;;;;;12.95;3.03;;;;;;;15.13;59.35;101806.38;5075338;28;20041;-61
2022/06/13 00:10:31;;;;;;;14.43;3.15;;;;;;;14.99;59.88;101807.63;5056136;28;20052;-61
2022/06/13 00:12:58;;;;;;;15.98;3.25;;;;;;;14.94;60.28;101819.66;5074253;28;20056;-62
2022/06/13 00:15:25;;;;;;;10.73;2.90;;;;;;;14.77;60.94;101818.72;5074841;28;20059;-62
2022/06/13 00:17:53;;;;;;;10.27;3.22;;;;;;;14.97;60.22;101816.25;5057040;28;20045;-63
2022/06/13 00:20:20;;;;;;;13.30;2.75;;;;;;;15.11;60.12;101818.97;5055203;28;20045;-63
2022/06/13 00:22:47;;;;;;;10.48;3.00;;;;;;;15.11;60.22;101818.97;5056705;28;20401;-62
2022/06/13 00:25:16;;;;;;;13.10;2.95;;;;;;;14.98;61.01;101825.38;5074764;28;20056;-63
2022/06/13 00:27:43;;;;;;;9.13;2.53;;;;;;;14.70;61.63;101821.13;5044830;28;20052;-65
2022/06/13 00:30:11;;;;;;;14.13;2.75;;;;;;;14.46;62.82;101810.31;5066680;28;20049;-63
2022/06/13 00:32:38;;;;;;;11.30;2.97;;;;;;;14.66;62.58;101818.16;5046572;28;20057;-63
2022/06/13 00:35:06;;;;;;;10.68;3.13;;;;;;;14.38;63.83;101820.16;5072587;28;20057;-62
2022/06/13 00:37:34;;;;;;;11.50;3.10;;;;;;;14.42;63.87;101826.75;5052611;28;20468;-63
2022/06/13 00:40:02;;;;;;;9.88;3.33;;;;;;;14.35;64.26;101828.28;5039839;28;20056;-62
2022/06/13 00:42:29;;;;;;;11.23;2.47;;;;;;;14.35;64.38;101815.25;5068464;28;20092;-62
2022/06/13 00:45:17;;;;;;;10.15;2.90;;;;;;;14.52;63.88;101809.06;5073311;28;20059;-63
2022/06/13 00:47:47;;;;;;;12.25;3.20;;;;;;;14.19;64.83;101818.66;5040820;28;20049;-63
2022/06/13 00:50:34;;;;;;;11.25;3.03;;;;;;;14.30;64.93;101815.38;5028886;28;20055;-62
2022/06/13 00:53:09;;;;;;;12.45;3.58;;;;;;;14.42;64.82;101806.50;5072669;28;20056;-64
2022/06/13 00:55:40;;;;;;;13.23;3.10;;;;;;;14.46;64.71;101804.75;5074084;28;20053;-62
2022/06/13 00:58:08;;;;;;;16.30;3.40;;;;;;;14.40;65.05;101806.03;5089715;28;20119;-62
2022/06/13 01:00:35;;;;;;;11.32;2.75;;;;;;;14.15;66.59;101801.84;5088210;28;20503;-61
2022/06/13 01:03:04;;;;;;;10.65;3.13;;;;;;;14.29;66.59;101797.13;5062812;28;20059;-62
2022/06/13 01:05:35;;;;;;;14.80;3.60;;;;;;;14.63;65.50;101794.63;5056477;28;20063;-62
2022/06/13 01:08:05;;;;;;;12.95;2.97;;;;;;;14.83;64.97;101787.78;5045625;28;20045;-62
2022/06/13 01:13:21;;;;;;;15.15;3.97;;;;;;;14.81;64.90;101790.03;5064742;28;20052;-62
2022/06/13 01:15:51;;;;;;;10.20;3.05;;;;;;;14.90;64.18;101785.38;5054788;28;20044;-62
2022/06/13 01:18:25;;;;;;;11.68;2.97;;;;;;;14.66;65.26;101776.56;5056203;28;20048;-61
2022/06/13 01:21:14;;;;;;;13.40;3.40;;;;;;;14.62;64.93;101781.09;5056119;28;20049;-61
2022/06/13 01:23:44;;;;;;;14.77;3.70;;;;;;;14.84;65.22;101785.78;5053349;28;20052;-61
2022/06/13 01:26:20;;;;;;;;;;;;;;;14.71;64.84;101781.97;5054866;28;20515;-62
2022/06/13 01:28:53;;;;;;;15.32;3.35;;;;;;;14.28;66.62;101780.78;5071349;28;19920;-62
2022/06/13 01:31:36;;;;;;;15.82;3.45;;;;;;;14.25;66.99;101778.63;5063765;28;20053;-62
2022/06/13 01:34:15;;;;;;;15.50;3.63;;;;;;;14.40;66.47;101783.84;5076004;28;20060;-62
2022/06/13 01:36:57;;;;;;;13.27;3.28;;;;;;;14.46;66.54;101766.78;5074420;28;20523;-61
2022/06/13 01:39:28;;;;;;;16.00;3.50;;;;;;;14.61;66.38;101773.88;5077519;28;20049;-62
2022/06/13 01:42:01;;;;;;;11.45;3.10;;;;;;;14.71;66.16;101779.19;5026396;28;20084;-62
2022/06/13 01:44:38;;;;;;;13.77;3.40;;;;;;;14.92;65.12;101780.34;5063082;28;20064;-62
2022/06/13 01:47:21;;;;;;;18.25;3.63;;;;;;;14.68;65.78;101777.88;5066625;28;20158;-62
2022/06/13 01:50:09;;;;;;;16.73;3.38;;;;;;;14.41;66.53;101782.72;5058929;28;20594;-62
2022/06/13 01:52:49;;;;;;;15.32;3.33;;;;;;;14.34;67.32;101783.16;5077619;28;20506;-62
2022/06/13 01:55:41;;;;;;;16.63;4.03;;;;;;;14.21;68.06;101789.50;5064742;28;20511;-63
2022/06/13 01:58:35;;;;;;;15.95;3.60;;;;;;;14.00;69.22;101793.84;5065654;28;20291;-62
2022/06/13 02:01:13;;;;;;;13.35;3.40;;;;;;;13.92;70.01;101791.81;5058835;28;20061;-62
2022/06/13 02:03:49;;;;;;;20.55;4.45;;;;;;;14.42;68.37;101787.94;5078097;28;20056;-62
2022/06/13 02:06:24;;;;;;;15.90;3.50;;;;;;;14.32;68.34;101795.66;5040548;28;20059;-61
2022/06/13 02:08:52;;;;;;;15.85;3.67;;;;;;;14.24;69.24;101788.88;5059490;28;20048;-62
2022/06/13 02:11:33;;;;;;;13.40;3.50;;;;;;;14.35;68.78;101782.00;5042444;28;20048;-63
2022/06/13 02:14:01;;;;;;;15.07;4.00;;;;;;;14.36;68.57;101791.16;5070897;28;20056;-62
2022/06/13 02:16:42;;;;;;;15.93;4.53;;;;;;;14.34;68.77;101791.47;5069989;28;20053;-62
2022/06/13 02:19:12;;;;;;;16.02;4.13;;;;;;;14.24;69.30;101782.53;5068276;28;20045;-62
2022/06/13 02:21:46;;;;;;;14.40;3.70;;;;;;;14.19;69.21;101783.44;5076943;28;20514;-62
2022/06/13 02:24:18;;;;;;;14.52;3.80;;;;;;;14.04;70.79;101778.25;5062312;28;20484;-62
2022/06/13 02:26:49;;;;;;;14.38;3.67;;;;;;;14.15;70.28;101787.16;5070387;28;20610;-62
2022/06/13 02:29:21;;;;;;;18.02;4.22;;;;;;;14.14;70.36;101791.88;5058812;28;20049;-63
2022/06/13 02:31:56;;;;;;;12.98;3.85;;;;;;;14.14;70.45;101783.56;5071686;28;20048;-62
2022/06/13 02:34:32;;;;;;;16.20;3.95;;;;;;;14.36;69.83;101782.81;5042572;28;20052;-62
2022/06/13 02:37:43;;;;;;;14.77;3.42;;;;;;;14.28;69.91;101783.56;5059838;28;20048;-62
2022/06/13 02:40:15;;;;;;;12.25;3.42;;;;;;;14.17;70.48;101784.91;5058256;28;20056;-61
2022/06/13 02:42:50;;;;;;;20.10;5.15;;;;;;;14.25;70.33;101789.69;5066308;28;20056;-71
2022/06/13 02:45:33;;;;;;;16.52;4.22;;;;;;;14.52;69.51;101779.38;5069680;28;20053;-71
2022/06/13 02:48:07;;;;;;;16.77;4.05;;;;;;;14.45;69.25;101778.19;5070037;28;20049;-70
2022/06/13 02:51:08;;;;;;;14.60;4.18;;;;;;;14.77;68.20;101783.47;5052262;28;20404;-70
2022/06/13 02:53:39;;;;;;;17.08;4.70;;;;;;;14.34;69.94;101783.16;5051097;28;20052;-71
2022/06/13 02:56:24;;;;;;;17.35;4.00;;;;;;;14.60;68.91;101781.41;5076778;28;20060;-69
2022/06/13 02:59:07;;;;;;;17.95;3.92;;;;;;;14.39;69.45;101783.03;5073040;28;20055;-70
2022/06/13 03:01:40;;;;;;;15.93;3.92;;;;;;;14.55;69.29;101787.06;5058839;28;20511;-71
2022/06/13 03:04:14;;;;;;;16.92;4.07;;;;;;;14.54;69.30;101784.59;5056416;28;20055;-72
2022/06/13 03:07:09;;;;;;;14.73;4.07;;;;;;;14.77;68.61;101789.03;5058664;28;20055;-71
2022/06/13 03:09:49;;;;;;;19.38;4.43;;;;;;;14.14;70.78;101796.63;5063155;28;20053;-70
2022/06/13 03:12:19;;;;;;;18.00;4.22;;;;;;;14.26;70.72;101783.06;5073779;28;20063;-70
2022/06/13 03:14:47;;;;;;;;;;;;;;;14.10;71.16;101792.81;5021772;28;20049;-70
2022/06/13 03:17:48;;;;;;;18.52;4.63;;;;;;;14.00;72.18;101799.38;5043690;28;19932;-72
2022/06/13 03:20:35;;;;;;;16.52;4.32;;;;;;;14.00;71.92;101795.81;5054759;28;20052;-69
2022/06/13 03:23:12;;;;;;;20.45;4.07;;;;;;;14.19;71.74;101804.81;5028271;28;20512;-71
2022/06/13 03:25:44;;;;;;;20.08;4.20;;;;;;;14.15;72.15;101809.31;5063501;28;20036;-71
2022/06/13 03:28:15;;;;;;;17.33;4.47;;;;;;;14.15;71.90;101815.69;5075910;28;20067;-70
2022/06/13 03:30:47;;;;;;;17.02;4.32;;;;;;;13.95;72.60;101812.53;5058739;28;20064;-70
2022/06/13 03:36:09;;;;;;;20.53;4.33;;;;;;;14.02;72.92;101810.16;5050365;28;20056;-70
2022/06/13 03:38:45;;;;;;;17.98;4.47;;;;;;;14.23;72.17;101816.91;5051969;28;20301;-70
2022/06/13 03:41:15;;;;;;;19.88;4.05;;;;;;;14.09;72.04;101819.69;5072235;28;20052;-70
2022/06/13 03:43:47;;;;;;;19.70;5.63;;;;;;;14.09;72.92;101824.41;5084913;28;20076;-70
2022/06/13 03:46:23;;;;;;;17.13;4.70;;;;;;;14.14;72.87;101822.34;5075704;28;20056;-71
2022/06/13 03:49:06;;;;;;;15.25;3.78;;;;;;;14.35;72.04;101818.03;5070665;28;20056;-70
2022/06/13 03:51:38;;;;;;;21.25;4.72;;;;;;;14.14;72.40;101830.66;5057754;28;20048;-71
2022/06/13 03:54:24;;;;;;;20.08;4.40;;;;;;;14.39;72.02;101830.16;5047103;28;20044;-71
2022/06/13 03:57:02;;;;;;;18.20;4.82;;;;;;;14.12;72.86;101826.59;5068135;28;20053;-71
2022/06/13 03:59:41;;;;;;;16.35;4.90;;;;;;;14.16;73.47;101827.56;5092083;28;20037;-70
2022/06/13 04:02:12;;;;;;;21.45;4.45;;;;;;;13.82;73.93;101832.75;5059052;28;20056;-71
2022/06/13 04:04:50;;;;;;;13.88;4.30;;;;;;;13.68;75.40;101834.69;5090997;28;20435;-71
2022/06/13 04:07:18;;;;;;;18.65;4.85;;;;;;;13.81;75.24;101825.59;5075393;28;20056;-72
2022/06/13 04:09:51;;;;;;;17.10;5.47;;;;;;;13.89;74.64;101824.84;5074787;28;20041;-71
2022/06/13 04:12:24;;;;;;;17.50;4.60;;;;;;;13.78;75.32;101824.25;5090780;28;20384;-71
2022/06/13 04:15:13;;;;;;;21.08;4.65;;;;;;;13.86;75.34;101823.50;5026953;28;20048;-71
2022/06/13 04:18:07;;;;;;;17.75;4.43;;;;;;;13.84;74.84;101831.34;5063610;28;20055;-71
2022/06/13 04:20:54;;;;;;;18.27;4.72;;;;;;;13.70;75.92;101833.28;5057551;28;20063;-70
2022/06/13 04:23:29;;;;;;;16.33;4.25;;;;;;;13.77;75.29;101835.63;5057456;28;20059;-71
2022/06/13 04:26:03;;;;;;;17.23;4.45;;;;;;;13.94;75.27;101828.34;5057003;28;20074;-72
2022/06/13 04:28:49;;;;;;;14.18;4.45;;;;;;;14.00;74.56;101840.94;5074615;28;20403;-71
2022/06/13 04:31:18;;;;;;;20.77;4.38;;;;;;;14.09;74.73;101838.25;5060821;28;20055;-71
2022/06/13 04:33:58;;;;;;;20.75;5.40;;;;;;;13.91;75.47;101834.50;5061969;28;20044;-70
2022/06/13 04:36:26;;;;;;;16.38;4.72;;;;;;;13.85;76.19;101834.91;5059938;28;20052;-70
2022/06/13 04:38:55;;;;;;;19.00;4.45;;;;;;;14.27;74.81;101829.03;5062588;28;20044;-70
2022/06/13 04:41:25;;;;;;;19.70;4.93;;;;;;;14.25;74.38;101836.81;5059954;28;20053;-71
2022/06/13 04:43:55;;;;;;;17.80;6.13;;;;;;;14.12;75.11;101834.91;5040402;28;20103;-71
2022/06/13 04:46:25;;;;;;;24.38;5.93;;;;;;;14.22;74.52;101835.50;5090010;28;20052;-71
2022/06/13 04:48:55;;;;;;;21.17;5.20;;;;;;;14.22;74.77;101829.94;5056246;28;20400;-71
2022/06/13 04:51:26;;;;;;;21.10;5.53;;;;;;;14.18;75.06;101830.88;5089753;28;20044;-71
2022/06/13 04:53:55;;;;;;;21.83;5.38;;;;;;;14.15;75.15;101831.50;5057411;28;20052;-72
2022/06/13 04:56:23;;;;;;;26.15;5.68;;;;;;;14.13;75.27;101842.06;5057007;28;20052;-71
2022/06/13 04:58:53;;;;;;;19.25;5.15;;;;;;;14.41;74.37;101838.97;5074634;28;20044;-70
2022/06/13 05:01:36;;;;;;;22.15;5.28;;;;;;;14.57;73.03;101845.00;5052835;28;20049;-71
2022/06/13 05:04:06;;;;;;;19.08;5.38;;;;;;;14.81;72.44;101842.75;5083507;28;20055;-71
2022/06/13 05:06:37;;;;;;;20.30;5.57;;;;;;;14.73;71.70;101853.75;5079862;28;20428;-71
2022/06/13 05:09:10;;;;;;;13.55;4.28;;;;;;;14.56;72.46;101851.66;5058856;28;20063;-72
2022/06/13 05:11:44;;;;;;;16.67;5.20;;;;;;;14.35;73.14;101859.59;5051208;28;20388;-71
2022/06/13 05:14:25;;;;;;;17.73;5.05;;;;;;;14.71;72.31;101856.84;5056592;28;20123;-71
2022/06/13 05:17:32;;;;;;;22.35;5.07;;;;;;;14.87;71.28;101860.88;5062209;28;20041;-70
2022/06/13 05:20:23;;;;;;;12.07;4.88;;;;;;;14.96;70.89;101855.44;5074002;28;20048;-71
2022/06/13 05:23:12;;;;;;;26.92;5.35;;;;;;;15.04;70.99;101849.94;5054597;28;20403;-71
2022/06/13 05:25:45;;;;;;;19.50;5.10;;;;;;;14.89;71.80;101853.06;5073708;28;20051;-70
2022/06/13 05:28:18;;;;;;;21.50;5.10;;;;;;;15.00;71.34;101853.63;5065704;28;20052;-70
2022/06/13 05:30:51;;;;;;;18.10;5.45;;;;;;;14.98;70.83;101853.97;5061031;28;20057;-72
2022/06/13 05:33:20;;;;;;;19.70;5.47;;;;;;;14.82;71.90;101849.91;5074401;28;20492;-73
2022/06/13 05:35:52;;;;;;;18.10;5.55;;;;;;;14.78;71.75;101850.88;5074214;28;20056;-71
2022/06/13 05:38:42;;;;;;;19.38;5.65;;;;;;;14.46;73.90;101861.03;5074512;28;20048;-72
2022/06/13 05:41:10;;;;;;;23.48;5.65;;;;;;;14.77;73.12;101855.59;5068636;28;20052;-71
2022/06/13 05:43:37;;;;;;;20.95;6.10;;;;;;;14.68;73.30;101864.97;5068099;28;20051;-71
2022/06/13 05:46:06;;;;;;;25.42;5.93;;;;;;;14.48;74.09;101861.53;5061870;28;20064;-71
2022/06/13 05:48:34;;;;;;;21.20;6.30;;;;;;;14.56;73.74;101871.06;5073863;28;20156;-70
2022/06/13 05:51:02;;;;;;;23.63;6.57;;;;;;;14.37;74.83;101870.38;5047634;28;20401;-71
2022/06/13 05:53:29;;;;;;;20.85;5.80;;;;;;;14.38;75.36;101877.59;5053037;28;20432;-72
2022/06/13 05:56:00;;;;;;;23.73;5.60;;;;;;;14.45;74.69;101873.22;5067741;28;20052;-70
2022/06/13 05:58:27;;;;;;;;;;;;;;;14.35;75.55;101878.19;5063065;28;20055;-70
2022/06/13 06:01:01;;;;;;;26.92;7.35;;;;;;;14.60;74.75;101874.84;5014917;28;19929;-70
2022/06/13 06:03:29;;;;;;;28.05;6.30;;;;;;;14.52;75.09;101873.63;5074541;28;20049;-70
2022/06/13 06:05:58;;;;;;;22.00;6.38;;;;;;;14.82;73.93;101874.09;5070249;28;20068;-71
2022/06/13 06:08:28;;;;;;;23.38;5.90;;;;;;;14.82;73.58;101887.94;5064113;28;20496;-71
2022/06/13 06:10:57;;;;;;;19.90;5.63;;;;;;;14.83;74.25;101889.56;5054917;28;20048;-70
2022/06/13 06:13:26;;;;;;;21.17;5.65;;;;;;;14.84;73.93;101888.44;5073280;28;20045;-70
2022/06/13 06:15:54;;;;;;;24.65;6.38;;;;;;;14.54;74.60;101888.00;5073682;28;20052;-72
2022/06/13 06:18:23;;;;;;;21.38;6.15;;;;;;;14.33;75.46;101894.31;5076159;28;20053;-72
2022/06/13 06:20:50;;;;;;;23.88;6.47;;;;;;;14.77;79.26;101888.06;5077800;28;20391;-72
2022/06/13 06:23:18;;;;;;;22.38;5.07;;;;;;;15.17;75.30;101901.75;5046791;28;20053;-69
2022/06/13 06:25:47;;;;;;;23.45;5.55;;;;;;;15.34;74.18;101895.53;5077471;28;20424;-70
2022/06/13 06:28:21;;;;;;;18.75;5.40;;;;;;;15.52;74.19;101892.56;5053393;28;20056;-68
2022/06/13 06:30:50;;;;;;;23.15;6.20;;;;;;;15.84;73.20;101898.94;5088576;28;20047;-68
2022/06/13 06:33:17;;;;;;;26.92;6.22;;;;;;;15.51;73.16;101904.00;5057169;28;20049;-68
2022/06/13 06:35:45;;;;;;;20.98;5.38;;;;;;;15.46;72.71;101896.59;5076646;28;20055;-68
2022/06/13 06:38:12;;;;;;;20.92;5.70;;;;;;;15.77;71.79;101897.44;5080758;28;20052;-68
2022/06/13 06:40:39;;;;;;;23.65;6.05;;;;;;;15.63;71.53;101901.44;5056247;28;20523;-68
2022/06/13 06:43:07;;;;;;;25.23;6.85;;;;;;;15.78;70.60;101899.06;5067375;28;20052;-70
2022/06/13 06:45:34;;;;;;;20.05;4.70;;;;;;;16.16;71.41;101896.59;5086756;28;20067;-69
2022/06/13 06:48:02;;;;;;;22.55;5.32;;;;;;;16.45;67.97;101904.38;5075387;28;20052;-67
2022/06/13 06:50:32;;;;;;;24.30;6.38;;;;;;;15.41;70.01;101912.59;5072397;28;20053;-68
2022/06/13 06:53:00;;;;;;;19.63;6.65;;;;;;;14.95;72.64;101912.88;5057920;28;20148;-69
2022/06/13 07:01:05;;;;;;;24.77;5.55;;;;;;;15.28;71.60;101903.16;5072767;28;20059;-68
2022/06/13 07:03:32;;;;;;;24.00;6.60;;;;;;;15.70;70.73;101913.75;5038175;28;20052;-68
2022/06/13 07:06:00;;;;;;;18.60;5.15;;;;;;;16.27;68.04;101913.81;5063823;28;20068;-68
2022/06/13 07:08:28;;;;;;;19.27;5.38;;;;;;;16.35;67.49;101924.16;5085849;28;20097;-69
2022/06/13 07:11:53;;;;;;;20.67;5.70;;;;;;;16.23;67.67;101919.19;5053574;28;20407;-69
2022/06/13 07:13:46;;;;;;;26.83;6.20;;;;;;;16.28;66.36;101919.06;5073384;28;20403;-69
2022/06/13 07:16:13;;;;;;;19.35;5.65;;;;;;;15.69;69.14;101912.09;5071392;28;20044;-68
2022/06/13 07:18:41;;;;;;;21.50;5.53;;;;;;;16.06;67.75;101915.53;5085964;28;20061;-69
2022/06/13 07:21:09;;;;;;;26.90;9.38;;;;;;;16.41;66.68;101920.88;5070252;28;20419;-68
2022/06/13 07:23:36;;;;;;;25.77;6.25;;;;;;;16.40;67.04;101922.03;5063291;28;20388;-68
2022/06/13 07:26:04;;;;;;;16.52;5.95;;;;;;;16.59;64.48;101917.06;5049038;28;20064;-68
2022/06/13 07:28:31;;;;;;;23.15;5.88;;;;;;;16.07;66.03;101920.78;5064352;28;20051;-69
2022/06/13 07:30:59;;;;;;;20.13;5.68;;;;;;;16.02;67.07;101920.09;5065558;28;20040;-70
2022/06/13 07:33:26;;;;;;;23.67;5.47;;;;;;;16.51;63.56;101922.59;5072511;28;20048;-69
2022/06/13 07:35:53;;;;;;;22.33;5.95;;;;;;;17.01;62.88;101912.66;5073841;28;20571;-69
2022/06/13 07:38:21;;;;;;;21.20;5.18;;;;;;;17.09;61.65;101917.41;5074349;28;20468;-70
2022/06/13 07:40:52;;;;;;;23.48;5.00;;;;;;;17.78;59.54;101912.56;5078455;28;20056;-69
2022/06/13 07:43:27;;;;;;;17.48;4.90;;;;;;;18.31;57.67;101912.00;5066480;28;20052;-69
2022/06/13 07:45:55;;;;;;;19.33;5.22;;;;;;;18.29;57.56;101911.53;5049862;28;20049;-70
2022/06/13 07:48:25;;;;;;;15.85;4.65;;;;;;;18.83;55.67;101904.94;5036581;28;20052;-66
2022/06/13 07:50:53;;;;;;;21.38;5.30;;;;;;;19.08;54.74;101907.53;5067189;28;20048;-70
2022/06/13 07:53:20;;;;;;;16.88;4.95;;;;;;;18.55;54.89;101917.81;5065747;28;20048;-70
2022/06/13 07:56:07;;;;;;;24.33;5.40;;;;;;;17.87;57.25;101921.69;5070733;28;20052;-70
2022/06/13 07:58:36;;;;;;;15.65;4.60;;;;;;;17.98;57.16;101921.00;5037369;28;20063;-70
2022/06/13 08:01:05;;;;;;;19.27;5.00;;;;;;;18.14;56.34;101926.84;5054509;28;20052;-70
2022/06/13 08:03:34;;;;;;;22.73;5.00;;;;;;;18.96;54.26;101918.66;5068631;28;20044;-71
2022/06/13 08:06:03;;;;;;;18.08;5.18;;;;;;;19.23;53.39;101914.47;5068218;28;20055;-70
2022/06/13 08:08:34;;;;;;;17.67;3.90;;;;;;;19.20;49.75;101917.13;5065669;28;20057;-69
2022/06/13 08:11:04;;;;;;;18.33;4.45;;;;;;;19.62;48.85;101911.16;5074625;28;20063;-69
2022/06/13 08:13:32;;;;;;;16.85;4.03;;;;;;;19.77;48.41;101915.28;5050736;28;20063;-70
2022/06/13 08:15:59;;;;;;;22.10;4.28;;;;;;;19.90;47.51;101906.56;5070637;28;20480;-69
2022/06/13 08:18:28;;;;;;;12.20;3.88;;;;;;;19.83;46.58;101911.06;5075983;28;20041;-69
2022/06/13 08:20:56;;;;;;;13.32;3.70;;;;;;;19.37;48.58;101917.81;5072627;28;20246;-70
2022/06/13 08:23:24;;;;;;;16.98;3.83;;;;;;;19.26;49.23;101911.00;5072777;28;20064;-70
2022/06/13 08:25:51;;;;;;;17.60;4.30;;;;;;;19.25;49.53;101914.94;5076906;28;20067;-69
2022/06/13 08:28:18;;;;;;;15.48;4.55;;;;;;;19.58;49.60;101910.19;5069764;28;20053;-69
2022/06/13 08:30:54;;;;;;;19.83;4.97;;;;;;;19.52;49.06;101917.19;5069624;28;20416;-69
2022/06/13 08:33:21;;;;;;;18.52;5.40;;;;;;;19.49;48.90;101922.66;5054684;28;20037;-68
2022/06/13 08:35:49;;;;;;;19.50;4.97;;;;;;;18.71;51.22;101919.66;5073945;28;20052;-68
2022/06/13 08:38:17;;;;;;;18.85;4.55;;;;;;;19.17;50.95;101920.59;5072503;28;20045;-68
2022/06/13 08:40:55;;;;;;;23.35;4.78;;;;;;;18.99;50.63;101917.13;5065954;28;20055;-67
2022/06/13 08:43:35;;;;;;;13.48;4.10;;;;;;;19.31;49.99;101910.81;5069125;28;20052;-69
2022/06/13 08:46:14;;;;;;;19.73;4.47;;;;;;;19.63;48.88;101912.78;5067954;28;20048;-68
2022/06/13 08:48:46;;;;;;;15.10;4.05;;;;;;;18.98;50.44;101907.97;5077803;28;20077;-68
2022/06/13 08:51:18;;;;;;;25.40;4.50;;;;;;;18.55;51.24;101932.56;5048477;28;20494;-68
2022/06/13 08:53:56;;;;;;;19.17;4.40;;;;;;;18.45;51.26;101921.78;5059825;28;20063;-69
2022/06/13 08:56:27;;;;;;;18.45;4.35;;;;;;;18.31;51.74;101914.78;5070891;28;20064;-69
2022/06/13 08:59:22;;;;;;;20.17;4.10;;;;;;;18.46;52.22;101917.03;5058273;28;20060;-69
2022/06/13 09:02:16;;;;;;;14.38;4.20;;;;;;;18.84;50.19;101907.41;5080212;28;20079;-68
2022/06/13 09:04:55;;;;;;;13.52;3.50;;;;;;;19.29;48.07;101915.91;5039430;28;20056;-68
2022/06/13 09:07:26;;;;;;;12.85;3.35;;;;;;;19.00;46.25;101914.00;5080292;28;20407;-69
2022/06/13 09:09:58;;;;;;;11.02;2.85;;;;;;;18.85;44.67;101911.84;5060650;28;20040;-70
2022/06/13 09:12:38;;;;;;;13.43;3.17;;;;;;;19.22;44.70;101915.63;5045065;28;20056;-70
2022/06/13 09:15:34;;;;;;;14.93;3.00;;;;;;;18.22;45.26;101923.19;5085531;28;20410;-70
2022/06/13 09:18:13;;;;;;;13.25;3.75;;;;;;;18.94;45.77;101917.34;5050393;28;20396;-71
2022/06/13 09:20:49;;;;;;;12.83;3.53;;;;;;;18.87;44.97;101911.50;5086138;28;20155;-73
2022/06/13 09:23:32;;;;;;;16.58;3.83;;;;;;;19.19;44.52;101919.13;5085889;28;20047;-71
2022/06/13 09:26:06;;;;;;;13.45;3.50;;;;;;;18.88;45.01;101913.94;5070062;28;20818;-71
2022/06/13 09:28:41;;;;;;;12.85;3.67;;;;;;;18.90;45.28;101910.81;5061787;28;20045;-71
2022/06/13 09:31:13;;;;;;;12.77;3.05;;;;;;;19.21;44.26;101913.19;5062113;28;20059;-71
2022/06/13 09:33:46;;;;;;;16.67;2.92;;;;;;;18.74;44.56;101918.16;5070189;28;20392;-70
2022/06/13 09:36:45;;;;;;;13.57;3.58;;;;;;;18.52;46.33;101912.88;5051769;28;20048;-68
2022/06/13 09:39:13;;;;;;;11.55;3.30;;;;;;;18.71;46.24;101911.28;5067687;28;20060;-72
2022/06/13 09:41:49;;;;;;;11.25;3.53;;;;;;;18.66;45.51;101922.66;5053662;28;20052;-71
2022/06/13 09:44:20;;;;;;;12.77;3.60;;;;;;;18.73;45.50;101916.53;5071596;28;20056;-70
2022/06/13 09:46:50;;;;;;;12.50;3.35;;;;;;;19.13;44.54;101919.66;5063538;28;20048;-71
2022/06/13 09:49:28;;;;;;;14.98;4.50;;;;;;;19.08;44.09;101918.72;5069415;28;20072;-71
2022/06/13 09:52:02;;;;;;;11.27;4.22;;;;;;;18.88;43.85;101908.34;5064650;28;20528;-67
2022/06/13 09:54:35;;;;;;;9.68;3.33;;;;;;;18.73;44.62;101911.75;5071763;28;20053;-68
2022/06/13 09:57:21;;;;;;;16.20;4.15;;;;;;;18.72;43.85;101918.50;5079078;28;20063;-69
2022/06/13 10:00:12;;;;;;;29.23;4.20;;;;;;;19.07;43.87;101903.09;5059333;28;20041;-73
2022/06/13 10:02:58;;;;;;;17.20;3.95;;;;;;;19.01;43.85;101912.03;5071929;28;20522;-75
2022/06/13 10:05:41;;;;;;;9.68;2.88;;;;;;;18.93;43.26;101916.53;5076280;28;20057;-73
2022/06/13 10:08:48;;;;;;;14.65;3.78;;;;;;;19.31;43.48;101910.81;5053737;28;20060;-75
2022/06/13 10:11:34;;;;;;;11.48;3.47;;;;;;;19.75;42.93;101898.03;5076924;28;20055;-75
2022/06/13 10:14:25;;;;;;;11.07;3.60;;;;;;;20.14;41.79;101912.16;5068490;28;20037;-73
2022/06/13 10:17:11;;;;;;;15.73;4.00;;;;;;;19.63;42.84;101906.38;5058692;28;20044;-76
2022/06/13 10:19:47;;;;;;;10.80;2.85;;;;;;;19.90;42.13;101897.34;5075763;28;20056;-71
2022/06/13 10:22:20;;;;;;;13.48;3.70;;;;;;;19.89;41.66;101904.91;5074011;28;20510;-73
2022/06/13 10:24:51;;;;;;;13.98;3.60;;;;;;;19.31;42.28;101901.63;5070398;28;20075;-73
2022/06/13 10:27:37;;;;;;;14.45;3.47;;;;;;;19.16;42.79;101903.03;5069695;28;20071;-73
2022/06/13 10:30:32;;;;;;;17.48;3.40;;;;;;;19.24;42.44;101907.72;5070078;28;20076;-73
2022/06/13 10:33:45;;;;;;;14.88;3.45;;;;;;;19.13;42.85;101902.88;5074419;28;20048;-72
2022/06/13 10:36:16;;;;;;;16.85;3.95;;;;;;;19.44;41.96;101898.50;5017475;28;20064;-75
2022/06/13 10:38:59;;;;;;;12.43;3.20;;;;;;;19.38;41.57;101891.53;5076273;28;20044;-73
2022/06/13 10:41:27;;;;;;;13.38;3.30;;;;;;;19.38;42.04;101891.53;5065982;28;20411;-73
2022/06/13 10:43:56;;;;;;;11.15;3.60;;;;;;;19.31;42.00;101884.84;5082254;28;20048;-74
2022/06/13 10:46:23;;;;;;;13.68;3.28;;;;;;;19.46;41.88;101884.19;5068525;28;20044;-73
2022/06/13 10:49:27;;;;;;;11.18;3.15;;;;;;;19.62;41.17;101893.56;5055430;28;20071;-75
2022/06/13 10:51:59;;;;;;;12.45;3.28;;;;;;;19.69;40.49;101902.19;5061027;28;20067;-75
2022/06/13 10:54:34;;;;;;;14.10;3.90;;;;;;;20.00;40.28;101892.09;5094628;28;20049;-75
2022/06/13 10:57:05;;;;;;;13.10;4.70;;;;;;;20.05;39.91;101903.06;5078620;28;20052;-73
2022/06/13 10:59:35;;;;;;;15.50;6.80;;;;;;;19.77;40.30;101896.50;5084424;28;20048;-73
2022/06/13 11:02:26;;;;;;;12.10;5.28;;;;;;;19.76;40.78;101896.84;5067045;28;20056;-74
2022/06/13 11:05:13;;;;;;;11.52;3.83;;;;;;;19.67;39.95;101896.94;5086383;28;20207;-73
2022/06/13 11:08:00;;;;;;;10.43;3.97;;;;;;;19.85;39.72;101890.00;5070333;28;20411;-72
2022/06/13 11:10:35;;;;;;;15.00;4.03;;;;;;;19.55;40.24;101888.53;5065670;28;20564;-76
2022/06/13 11:13:12;;;;;;;10.02;3.30;;;;;;;19.82;39.69;101892.69;5084285;28;20160;-77
2022/06/13 11:24:29;;;;;;;15.57;4.10;;;;;;;20.21;39.70;101889.22;5067624;28;20044;-73
2022/06/13 11:29:43;;;;;;;12.30;3.60;;;;;;;20.41;39.33;101881.88;5071255;28;20412;-75
2022/06/13 11:32:25;;;;;;;9.82;2.75;;;;;;;20.75;38.78;101870.13;5039254;28;20057;-74
2022/06/13 11:34:53;;;;;;;12.85;2.75;;;;;;;21.11;39.21;101872.88;5042188;28;20041;-72
2022/06/13 11:37:23;;;;;;;14.70;3.03;;;;;;;21.19;38.16;101875.50;5080141;28;20052;-73
2022/06/13 11:39:52;;;;;;;12.82;3.80;;;;;;;20.53;39.06;101873.47;5057395;28;20053;-73
2022/06/13 11:42:26;;;;;;;13.77;3.08;;;;;;;20.43;38.45;101877.56;5058208;28;20075;-72
2022/06/13 11:45:10;;;;;;;12.95;3.65;;;;;;;20.25;38.44;101867.78;5053426;28;20446;-72
2022/06/13 11:47:42;;;;;;;12.95;3.83;;;;;;;20.22;39.53;101868.50;5056174;28;20048;-71
2022/06/13 11:50:36;;;;;;;15.93;3.78;;;;;;;20.32;39.13;101876.41;5059614;28;20076;-75
2022/06/13 11:55:53;;;;;;;15.18;5.05;;;;;;;20.46;38.80;101871.25;5070812;28;20055;-73
2022/06/13 11:58:24;;;;;;;10.57;3.70;;;;;;;20.78;39.03;101856.25;5050775;28;20041;-72
2022/06/13 12:00:54;;;;;;;12.40;4.20;;;;;;;21.02;38.05;101852.59;5050416;28;20048;-72
2022/06/13 12:03:25;;;;;;;9.60;3.88;;;;;;;20.67;38.31;101865.50;5047914;28;20056;-72
2022/06/13 12:06:09;;;;;;;13.43;3.72;;;;;;;20.45;38.30;101855.63;5077590;28;20044;-73
2022/06/13 12:08:36;;;;;;;12.35;3.03;;;;;;;20.64;37.97;101858.59;5051087;28;20433;-72
2022/06/13 12:11:23;;;;;;;15.52;5.38;;;;;;;20.57;38.42;101847.22;5057993;28;20059;-70
2022/06/13 12:13:52;;;;;;;12.65;3.83;;;;;;;20.84;38.36;101852.03;5066501;28;20488;-73
2022/06/13 12:17:00;;;;;;;13.60;2.90;;;;;;;20.45;38.22;101846.44;5062688;28;20055;-73
2022/06/13 12:19:34;;;;;;;15.23;3.45;;;;;;;20.30;38.66;101859.16;4980601;28;20312;-72